sensor_id;sensor_type;location;lat;lon;timestamp;temperature;humidity
2611;DHT22;5612;51.134;17.058;2023-04-24T00:00:47;14.40;49.90
2611;DHT22;5612;51.134;17.058;2023-04-24T00:03:16;14.50;23.90
2611;DHT22;5612;51.134;17.058;2023-04-24T00:05:48;14.40;1.00
2611;DHT22;5612;51.134;17.058;2023-04-24T00:08:17;14.40;1.00
2611;DHT22;5612;51.134;17.058;2023-04-24T00:10:46;14.40;1.00
2611;DHT22;5612;51.134;17.058;2023-04-24T00:13:16;14.40;99.90
2611;DHT22;5612;51.134;17.058;2023-04-24T00:15:44;14.40;99.90
2611;DHT22;5612;51.134;17.058;2023-04-24T00:18:13;14.30;64.70
2611;DHT22;5612;51.134;17.058;2023-04-24T00:20:42;14.40;90.50
2611;DHT22;5612;51.134;17.058;2023-04-24T00:23:11;14.30;99.90
2611;DHT22;5612;51.134;17.058;2023-04-24T00:25:40;14.30;99.90
2611;DHT22;5612;51.134;17.058;2023-04-24T00:28:08;14.20;99.90
2611;DHT22;5612;51.134;17.058;2023-04-24T00:30:39;14.40;99.90
2611;DHT22;5612;51.134;17.058;2023-04-24T00:33:08;14.30;99.90
2611;DHT22;5612;51.134;17.058;2023-04-24T00:35:37;14.30;99.90
2611;DHT22;5612;51.134;17.058;2023-04-24T00:38:05;14.30;99.90
2611;DHT22;5612;51.134;17.058;2023-04-24T00:40:34;14.20;99.90
2611;DHT22;5612;51.134;17.058;2023-04-24T00:43:03;14.10;99.90
2611;DHT22;5612;51.134;17.058;2023-04-24T00:45:33;14.20;99.90
2611;DHT22;5612;51.134;17.058;2023-04-24T00:48:04;14.30;99.90
2611;DHT22;5612;51.134;17.058;2023-04-24T00:50:33;14.30;99.90
2611;DHT22;5612;51.134;17.058;2023-04-24T00:53:03;14.20;99.90
2611;DHT22;5612;51.134;17.058;2023-04-24T00:55:32;14.20;99.90
2611;DHT22;5612;51.134;17.058;2023-04-24T00:58:01;14.30;1.00
2611;DHT22;5612;51.134;17.058;2023-04-24T01:00:30;14.20;1.00
2611;DHT22;5612;51.134;17.058;2023-04-24T01:02:59;14.20;1.00
2611;DHT22;5612;51.134;17.058;2023-04-24T01:05:32;14.20;1.00
2611;DHT22;5612;51.134;17.058;2023-04-24T01:08:01;14.10;1.00
2611;DHT22;5612;51.134;17.058;2023-04-24T01:10:33;14.00;1.00
2611;DHT22;5612;51.134;17.058;2023-04-24T01:13:03;14.20;1.00
2611;DHT22;5612;51.134;17.058;2023-04-24T01:15:31;14.10;1.00
2611;DHT22;5612;51.134;17.058;2023-04-24T01:18:00;14.10;1.00
2611;DHT22;5612;51.134;17.058;2023-04-24T01:20:31;14.10;1.00
2611;DHT22;5612;51.134;17.058;2023-04-24T01:23:01;14.10;1.00
2611;DHT22;5612;51.134;17.058;2023-04-24T01:25:30;14.10;1.00
2611;DHT22;5612;51.134;17.058;2023-04-24T01:28:00;14.00;1.00
2611;DHT22;5612;51.134;17.058;2023-04-24T01:30:29;14.00;1.00
2611;DHT22;5612;51.134;17.058;2023-04-24T01:32:59;14.10;1.00
2611;DHT22;5612;51.134;17.058;2023-04-24T01:35:27;14.10;1.00
2611;DHT22;5612;51.134;17.058;2023-04-24T01:37:56;14.00;1.00
2611;DHT22;5612;51.134;17.058;2023-04-24T01:40:27;14.00;1.00
2611;DHT22;5612;51.134;17.058;2023-04-24T01:42:56;13.90;1.00
2611;DHT22;5612;51.134;17.058;2023-04-24T01:45:25;13.90;1.00
2611;DHT22;5612;51.134;17.058;2023-04-24T01:47:54;13.90;1.00
2611;DHT22;5612;51.134;17.058;2023-04-24T01:50:24;13.80;1.00
2611;DHT22;5612;51.134;17.058;2023-04-24T01:52:53;13.70;1.00
2611;DHT22;5612;51.134;17.058;2023-04-24T01:55:21;13.70;1.00
2611;DHT22;5612;51.134;17.058;2023-04-24T01:57:52;13.60;1.00
2611;DHT22;5612;51.134;17.058;2023-04-24T02:00:22;13.60;1.00
2611;DHT22;5612;51.134;17.058;2023-04-24T02:02:52;13.60;1.00
2611;DHT22;5612;51.134;17.058;2023-04-24T02:05:21;13.70;1.00
2611;DHT22;5612;51.134;17.058;2023-04-24T02:07:49;13.70;1.00
2611;DHT22;5612;51.134;17.058;2023-04-24T02:10:18;13.70;1.00
2611;DHT22;5612;51.134;17.058;2023-04-24T02:12:47;13.70;1.00
2611;DHT22;5612;51.134;17.058;2023-04-24T02:15:17;13.70;1.00
2611;DHT22;5612;51.134;17.058;2023-04-24T02:17:46;13.60;1.00
2611;DHT22;5612;51.134;17.058;2023-04-24T02:20:14;13.50;1.00
2611;DHT22;5612;51.134;17.058;2023-04-24T02:22:44;13.50;1.00
2611;DHT22;5612;51.134;17.058;2023-04-24T02:25:13;13.40;46.40
2611;DHT22;5612;51.134;17.058;2023-04-24T02:27:42;13.30;71.90
2611;DHT22;5612;51.134;17.058;2023-04-24T02:30:11;13.50;59.40
2611;DHT22;5612;51.134;17.058;2023-04-24T02:32:41;13.70;47.80
2611;DHT22;5612;51.134;17.058;2023-04-24T02:35:10;13.80;26.00
2611;DHT22;5612;51.134;17.058;2023-04-24T02:37:39;13.70;18.90
2611;DHT22;5612;51.134;17.058;2023-04-24T02:40:09;13.70;30.00
2611;DHT22;5612;51.134;17.058;2023-04-24T02:42:37;13.70;52.10
2611;DHT22;5612;51.134;17.058;2023-04-24T02:45:07;13.60;81.80
2611;DHT22;5612;51.134;17.058;2023-04-24T02:47:36;13.60;84.50
2611;DHT22;5612;51.134;17.058;2023-04-24T02:50:08;13.60;52.90
2611;DHT22;5612;51.134;17.058;2023-04-24T02:52:36;13.70;36.20
2611;DHT22;5612;51.134;17.058;2023-04-24T02:55:06;13.80;28.20
2611;DHT22;5612;51.134;17.058;2023-04-24T02:57:35;13.70;18.50
2611;DHT22;5612;51.134;17.058;2023-04-24T03:00:05;13.80;22.10
2611;DHT22;5612;51.134;17.058;2023-04-24T03:02:34;13.70;5.60
2611;DHT22;5612;51.134;17.058;2023-04-24T03:05:03;13.70;7.60
2611;DHT22;5612;51.134;17.058;2023-04-24T03:07:33;13.70;28.50
2611;DHT22;5612;51.134;17.058;2023-04-24T03:10:02;13.80;19.80
2611;DHT22;5612;51.134;17.058;2023-04-24T03:12:32;13.70;1.00
2611;DHT22;5612;51.134;17.058;2023-04-24T03:15:00;13.80;39.80
2611;DHT22;5612;51.134;17.058;2023-04-24T03:17:29;13.80;8.30
2611;DHT22;5612;51.134;17.058;2023-04-24T03:19:58;13.90;26.40
2611;DHT22;5612;51.134;17.058;2023-04-24T03:22:26;13.90;19.80
2611;DHT22;5612;51.134;17.058;2023-04-24T03:24:56;14.00;30.60
2611;DHT22;5612;51.134;17.058;2023-04-24T03:27:25;13.90;23.40
2611;DHT22;5612;51.134;17.058;2023-04-24T03:29:54;13.80;8.10
2611;DHT22;5612;51.134;17.058;2023-04-24T03:32:23;13.60;6.50
2611;DHT22;5612;51.134;17.058;2023-04-24T03:34:52;13.40;1.00
2611;DHT22;5612;51.134;17.058;2023-04-24T03:37:20;13.40;42.30
2611;DHT22;5612;51.134;17.058;2023-04-24T03:39:49;13.40;16.10
2611;DHT22;5612;51.134;17.058;2023-04-24T03:42:19;13.40;68.70
2611;DHT22;5612;51.134;17.058;2023-04-24T03:44:48;13.40;43.20
2611;DHT22;5612;51.134;17.058;2023-04-24T03:47:17;13.40;60.90
2611;DHT22;5612;51.134;17.058;2023-04-24T03:49:45;13.30;17.80
2611;DHT22;5612;51.134;17.058;2023-04-24T03:52:14;13.40;13.50
2611;DHT22;5612;51.134;17.058;2023-04-24T03:54:43;13.30;14.50
2611;DHT22;5612;51.134;17.058;2023-04-24T03:57:11;13.20;61.60
2611;DHT22;5612;51.134;17.058;2023-04-24T03:59:41;13.20;52.30
2611;DHT22;5612;51.134;17.058;2023-04-24T04:02:10;13.10;60.50
2611;DHT22;5612;51.134;17.058;2023-04-24T04:04:39;13.10;71.40
2611;DHT22;5612;51.134;17.058;2023-04-24T04:07:09;13.00;79.80
2611;DHT22;5612;51.134;17.058;2023-04-24T04:09:38;13.10;85.20
2611;DHT22;5612;51.134;17.058;2023-04-24T04:12:07;13.10;67.60
2611;DHT22;5612;51.134;17.058;2023-04-24T04:14:36;13.10;53.20
2611;DHT22;5612;51.134;17.058;2023-04-24T04:17:06;13.20;46.60
2611;DHT22;5612;51.134;17.058;2023-04-24T04:19:35;13.10;31.60
2611;DHT22;5612;51.134;17.058;2023-04-24T04:22:04;13.10;35.00
2611;DHT22;5612;51.134;17.058;2023-04-24T04:24:35;13.10;46.00
2611;DHT22;5612;51.134;17.058;2023-04-24T04:27:05;13.10;19.80
2611;DHT22;5612;51.134;17.058;2023-04-24T04:29:34;13.00;17.40
2611;DHT22;5612;51.134;17.058;2023-04-24T04:32:03;13.00;6.00
2611;DHT22;5612;51.134;17.058;2023-04-24T04:34:33;13.00;1.00
2611;DHT22;5612;51.134;17.058;2023-04-24T04:37:04;13.20;1.00
2611;DHT22;5612;51.134;17.058;2023-04-24T04:39:33;13.30;1.00
2611;DHT22;5612;51.134;17.058;2023-04-24T04:42:02;13.40;1.00
2611;DHT22;5612;51.134;17.058;2023-04-24T04:44:31;13.40;1.00
2611;DHT22;5612;51.134;17.058;2023-04-24T04:47:00;13.50;1.00
2611;DHT22;5612;51.134;17.058;2023-04-24T04:49:32;13.60;1.00
2611;DHT22;5612;51.134;17.058;2023-04-24T04:52:01;13.60;99.90
2611;DHT22;5612;51.134;17.058;2023-04-24T04:54:30;13.70;1.00
2611;DHT22;5612;51.134;17.058;2023-04-24T04:56:59;13.80;1.00
2611;DHT22;5612;51.134;17.058;2023-04-24T04:59:30;14.00;1.00
2611;DHT22;5612;51.134;17.058;2023-04-24T05:01:58;14.10;99.90
2611;DHT22;5612;51.134;17.058;2023-04-24T05:04:27;14.20;99.90
2611;DHT22;5612;51.134;17.058;2023-04-24T05:06:59;14.20;1.00
2611;DHT22;5612;51.134;17.058;2023-04-24T05:09:27;14.40;1.00
2611;DHT22;5612;51.134;17.058;2023-04-24T05:11:56;14.40;99.90
2611;DHT22;5612;51.134;17.058;2023-04-24T05:14:25;14.40;99.90
2611;DHT22;5612;51.134;17.058;2023-04-24T05:16:54;14.50;1.00
2611;DHT22;5612;51.134;17.058;2023-04-24T05:19:22;14.50;99.90
2611;DHT22;5612;51.134;17.058;2023-04-24T05:21:51;14.70;1.00
2611;DHT22;5612;51.134;17.058;2023-04-24T05:24:21;14.80;99.90
2611;DHT22;5612;51.134;17.058;2023-04-24T05:26:50;15.00;99.90
2611;DHT22;5612;51.134;17.058;2023-04-24T05:29:19;15.00;99.90
2611;DHT22;5612;51.134;17.058;2023-04-24T05:31:48;15.10;1.00
2611;DHT22;5612;51.134;17.058;2023-04-24T05:34:17;15.00;99.90
2611;DHT22;5612;51.134;17.058;2023-04-24T05:36:46;15.00;1.00
2611;DHT22;5612;51.134;17.058;2023-04-24T05:39:14;15.00;1.00
2611;DHT22;5612;51.134;17.058;2023-04-24T05:41:44;15.00;99.90
2611;DHT22;5612;51.134;17.058;2023-04-24T05:44:13;15.10;99.90
2611;DHT22;5612;51.134;17.058;2023-04-24T05:46:42;15.10;99.90
2611;DHT22;5612;51.134;17.058;2023-04-24T05:49:11;15.20;99.90
2611;DHT22;5612;51.134;17.058;2023-04-24T05:51:39;15.40;99.90
2611;DHT22;5612;51.134;17.058;2023-04-24T05:54:08;15.50;99.90
2611;DHT22;5612;51.134;17.058;2023-04-24T05:56:39;15.50;99.90
2611;DHT22;5612;51.134;17.058;2023-04-24T05:59:11;15.70;99.90
2611;DHT22;5612;51.134;17.058;2023-04-24T06:01:39;15.90;99.90
2611;DHT22;5612;51.134;17.058;2023-04-24T06:04:09;16.00;99.90
2611;DHT22;5612;51.134;17.058;2023-04-24T06:06:38;15.90;99.90
2611;DHT22;5612;51.134;17.058;2023-04-24T06:09:07;15.90;99.90
2611;DHT22;5612;51.134;17.058;2023-04-24T06:11:35;15.90;99.90
2611;DHT22;5612;51.134;17.058;2023-04-24T06:14:04;16.00;99.90
2611;DHT22;5612;51.134;17.058;2023-04-24T06:16:34;16.00;99.90
2611;DHT22;5612;51.134;17.058;2023-04-24T06:19:03;16.00;98.80
2611;DHT22;5612;51.134;17.058;2023-04-24T06:21:32;15.90;99.90
2611;DHT22;5612;51.134;17.058;2023-04-24T06:24:01;16.10;99.90
2611;DHT22;5612;51.134;17.058;2023-04-24T06:26:31;16.30;99.90
2611;DHT22;5612;51.134;17.058;2023-04-24T06:29:00;16.40;96.70
2611;DHT22;5612;51.134;17.058;2023-04-24T06:31:29;16.40;99.90
2611;DHT22;5612;51.134;17.058;2023-04-24T06:34:05;16.40;62.10
2611;DHT22;5612;51.134;17.058;2023-04-24T06:36:34;16.40;70.00
2611;DHT22;5612;51.134;17.058;2023-04-24T06:39:03;16.40;71.90
2611;DHT22;5612;51.134;17.058;2023-04-24T06:41:32;16.40;99.90
2611;DHT22;5612;51.134;17.058;2023-04-24T06:44:01;16.50;35.60
2611;DHT22;5612;51.134;17.058;2023-04-24T06:46:30;16.60;32.00
2611;DHT22;5612;51.134;17.058;2023-04-24T06:49:00;16.60;1.00
2611;DHT22;5612;51.134;17.058;2023-04-24T06:51:32;16.40;1.00
2611;DHT22;5612;51.134;17.058;2023-04-24T06:54:02;16.30;12.70
2611;DHT22;5612;51.134;17.058;2023-04-24T06:56:31;16.50;16.10
2611;DHT22;5612;51.134;17.058;2023-04-24T06:59:01;16.60;1.00
2611;DHT22;5612;51.134;17.058;2023-04-24T07:01:30;16.80;8.70
2611;DHT22;5612;51.134;17.058;2023-04-24T07:03:59;16.90;22.20
2611;DHT22;5612;51.134;17.058;2023-04-24T07:06:31;17.10;1.00
2611;DHT22;5612;51.134;17.058;2023-04-24T07:09:00;17.30;1.00
2611;DHT22;5612;51.134;17.058;2023-04-24T07:11:30;17.40;1.00
2611;DHT22;5612;51.134;17.058;2023-04-24T07:14:00;17.50;1.00
2611;DHT22;5612;51.134;17.058;2023-04-24T07:16:29;17.40;1.00
2611;DHT22;5612;51.134;17.058;2023-04-24T07:18:57;17.40;1.00
2611;DHT22;5612;51.134;17.058;2023-04-24T07:21:27;17.40;1.00
2611;DHT22;5612;51.134;17.058;2023-04-24T07:23:59;17.40;1.00
2611;DHT22;5612;51.134;17.058;2023-04-24T07:26:30;17.40;1.00
2611;DHT22;5612;51.134;17.058;2023-04-24T07:28:59;17.30;1.00
2611;DHT22;5612;51.134;17.058;2023-04-24T07:31:28;17.30;1.00
2611;DHT22;5612;51.134;17.058;2023-04-24T07:33:57;17.40;1.00
2611;DHT22;5612;51.134;17.058;2023-04-24T07:36:26;17.60;1.00
2611;DHT22;5612;51.134;17.058;2023-04-24T07:38:55;17.80;1.00
2611;DHT22;5612;51.134;17.058;2023-04-24T07:41:26;17.80;1.00
2611;DHT22;5612;51.134;17.058;2023-04-24T07:43:55;18.00;1.00
2611;DHT22;5612;51.134;17.058;2023-04-24T07:46:26;18.20;1.00
2611;DHT22;5612;51.134;17.058;2023-04-24T07:48:57;18.30;1.00
2611;DHT22;5612;51.134;17.058;2023-04-24T07:51:40;18.50;1.00
2611;DHT22;5612;51.134;17.058;2023-04-24T07:54:09;18.60;1.00
2611;DHT22;5612;51.134;17.058;2023-04-24T07:56:40;18.70;1.00
2611;DHT22;5612;51.134;17.058;2023-04-24T07:59:10;18.70;1.00
2611;DHT22;5612;51.134;17.058;2023-04-24T08:01:39;18.70;1.00
2611;DHT22;5612;51.134;17.058;2023-04-24T08:04:08;18.90;1.00
2611;DHT22;5612;51.134;17.058;2023-04-24T08:06:37;19.00;1.00
2611;DHT22;5612;51.134;17.058;2023-04-24T08:09:06;19.00;1.00
2611;DHT22;5612;51.134;17.058;2023-04-24T08:11:35;19.10;1.00
2611;DHT22;5612;51.134;17.058;2023-04-24T08:14:06;19.10;1.00
2611;DHT22;5612;51.134;17.058;2023-04-24T08:16:35;18.90;1.00
2611;DHT22;5612;51.134;17.058;2023-04-24T08:19:04;19.00;1.00
2611;DHT22;5612;51.134;17.058;2023-04-24T08:21:32;19.00;1.00
2611;DHT22;5612;51.134;17.058;2023-04-24T08:24:01;19.00;1.00
2611;DHT22;5612;51.134;17.058;2023-04-24T08:26:32;19.10;1.00
2611;DHT22;5612;51.134;17.058;2023-04-24T08:29:01;19.00;1.00
2611;DHT22;5612;51.134;17.058;2023-04-24T08:31:32;19.00;1.00
2611;DHT22;5612;51.134;17.058;2023-04-24T08:34:01;19.00;1.00
2611;DHT22;5612;51.134;17.058;2023-04-24T08:36:30;18.90;1.00
2611;DHT22;5612;51.134;17.058;2023-04-24T08:39:13;18.90;1.00
2611;DHT22;5612;51.134;17.058;2023-04-24T08:41:43;18.90;7.10
2611;DHT22;5612;51.134;17.058;2023-04-24T08:44:13;18.90;78.30
2611;DHT22;5612;51.134;17.058;2023-04-24T08:46:45;18.90;90.60
2611;DHT22;5612;51.134;17.058;2023-04-24T08:49:17;18.80;85.30
2611;DHT22;5612;51.134;17.058;2023-04-24T08:51:46;18.80;60.80
2611;DHT22;5612;51.134;17.058;2023-04-24T08:54:15;19.00;99.90
2611;DHT22;5612;51.134;17.058;2023-04-24T08:56:45;19.40;99.90
2611;DHT22;5612;51.134;17.058;2023-04-24T08:59:16;20.40;99.00
2611;DHT22;5612;51.134;17.058;2023-04-24T09:01:46;22.10;1.00
2611;DHT22;5612;51.134;17.058;2023-04-24T09:04:17;22.80;1.00
2611;DHT22;5612;51.134;17.058;2023-04-24T09:06:49;23.30;1.00
2611;DHT22;5612;51.134;17.058;2023-04-24T09:09:18;23.70;1.00
2611;DHT22;5612;51.134;17.058;2023-04-24T09:11:49;23.70;1.00
2611;DHT22;5612;51.134;17.058;2023-04-24T09:14:19;23.40;1.00
2611;DHT22;5612;51.134;17.058;2023-04-24T09:16:50;23.30;1.00
2611;DHT22;5612;51.134;17.058;2023-04-24T09:19:19;24.40;1.00
2611;DHT22;5612;51.134;17.058;2023-04-24T09:21:49;25.60;1.00
2611;DHT22;5612;51.134;17.058;2023-04-24T09:24:19;26.10;1.00
2611;DHT22;5612;51.134;17.058;2023-04-24T09:26:58;27.20;1.00
2611;DHT22;5612;51.134;17.058;2023-04-24T09:29:28;28.00;1.00
2611;DHT22;5612;51.134;17.058;2023-04-24T09:32:18;29.00;1.00
2611;DHT22;5612;51.134;17.058;2023-04-24T09:34:49;30.50;1.00
2611;DHT22;5612;51.134;17.058;2023-04-24T09:37:28;30.90;1.00
2611;DHT22;5612;51.134;17.058;2023-04-24T09:40:12;30.20;1.00
2611;DHT22;5612;51.134;17.058;2023-04-24T09:42:44;30.60;1.00
2611;DHT22;5612;51.134;17.058;2023-04-24T09:45:13;31.40;1.00
2611;DHT22;5612;51.134;17.058;2023-04-24T09:47:44;31.00;1.00
2611;DHT22;5612;51.134;17.058;2023-04-24T09:50:15;30.60;1.00
2611;DHT22;5612;51.134;17.058;2023-04-24T09:52:47;29.40;1.00
2611;DHT22;5612;51.134;17.058;2023-04-24T09:55:24;28.10;1.00
2611;DHT22;5612;51.134;17.058;2023-04-24T09:57:55;26.60;1.00
2611;DHT22;5612;51.134;17.058;2023-04-24T10:00:25;25.40;1.00
2611;DHT22;5612;51.134;17.058;2023-04-24T10:03:00;24.80;1.00
2611;DHT22;5612;51.134;17.058;2023-04-24T10:05:30;23.90;1.00
2611;DHT22;5612;51.134;17.058;2023-04-24T10:08:03;23.40;1.00
2611;DHT22;5612;51.134;17.058;2023-04-24T10:10:34;23.10;1.00
2611;DHT22;5612;51.134;17.058;2023-04-24T10:13:05;22.70;1.00
2611;DHT22;5612;51.134;17.058;2023-04-24T10:15:35;22.40;1.00
2611;DHT22;5612;51.134;17.058;2023-04-24T10:18:07;22.00;1.00
2611;DHT22;5612;51.134;17.058;2023-04-24T10:20:37;21.50;1.00
2611;DHT22;5612;51.134;17.058;2023-04-24T10:23:06;21.20;1.00
2611;DHT22;5612;51.134;17.058;2023-04-24T10:25:36;21.10;1.00
2611;DHT22;5612;51.134;17.058;2023-04-24T10:28:05;20.90;1.00
2611;DHT22;5612;51.134;17.058;2023-04-24T10:30:37;20.70;1.00
2611;DHT22;5612;51.134;17.058;2023-04-24T10:33:08;20.60;1.00
2611;DHT22;5612;51.134;17.058;2023-04-24T10:35:41;20.30;1.00
2611;DHT22;5612;51.134;17.058;2023-04-24T10:38:12;20.00;1.00
2611;DHT22;5612;51.134;17.058;2023-04-24T10:40:43;20.00;1.00
2611;DHT22;5612;51.134;17.058;2023-04-24T10:43:17;20.50;1.00
2611;DHT22;5612;51.134;17.058;2023-04-24T10:46:01;21.30;1.00
2611;DHT22;5612;51.134;17.058;2023-04-24T10:48:32;22.40;1.00
2611;DHT22;5612;51.134;17.058;2023-04-24T10:51:01;22.80;1.00
2611;DHT22;5612;51.134;17.058;2023-04-24T10:53:30;22.80;1.00
2611;DHT22;5612;51.134;17.058;2023-04-24T10:56:03;22.40;1.00
2611;DHT22;5612;51.134;17.058;2023-04-24T10:58:40;22.10;1.00
2611;DHT22;5612;51.134;17.058;2023-04-24T11:01:24;21.30;1.00
2611;DHT22;5612;51.134;17.058;2023-04-24T11:03:57;20.50;1.00
2611;DHT22;5612;51.134;17.058;2023-04-24T11:06:30;19.80;1.00
2611;DHT22;5612;51.134;17.058;2023-04-24T11:09:03;19.30;1.00
2611;DHT22;5612;51.134;17.058;2023-04-24T11:11:34;19.00;1.00
2611;DHT22;5612;51.134;17.058;2023-04-24T11:14:07;18.90;1.00
2611;DHT22;5612;51.134;17.058;2023-04-24T11:16:42;18.90;1.00
2611;DHT22;5612;51.134;17.058;2023-04-24T11:19:21;19.20;1.00
2611;DHT22;5612;51.134;17.058;2023-04-24T11:21:57;19.50;1.00
2611;DHT22;5612;51.134;17.058;2023-04-24T11:24:32;19.60;1.00
2611;DHT22;5612;51.134;17.058;2023-04-24T11:27:07;19.80;1.00
2611;DHT22;5612;51.134;17.058;2023-04-24T11:29:42;19.60;1.00
2611;DHT22;5612;51.134;17.058;2023-04-24T11:32:22;19.60;1.00
2611;DHT22;5612;51.134;17.058;2023-04-24T11:34:54;19.70;1.00
2611;DHT22;5612;51.134;17.058;2023-04-24T11:37:26;20.00;1.00
2611;DHT22;5612;51.134;17.058;2023-04-24T11:39:56;20.00;1.00
2611;DHT22;5612;51.134;17.058;2023-04-24T11:42:26;20.00;1.00
2611;DHT22;5612;51.134;17.058;2023-04-24T11:44:56;20.40;1.00
2611;DHT22;5612;51.134;17.058;2023-04-24T11:47:29;20.70;1.00
2611;DHT22;5612;51.134;17.058;2023-04-24T11:50:00;21.00;1.00
2611;DHT22;5612;51.134;17.058;2023-04-24T11:52:30;21.50;1.00
2611;DHT22;5612;51.134;17.058;2023-04-24T11:54:59;21.80;1.00
2611;DHT22;5612;51.134;17.058;2023-04-24T11:57:29;22.30;1.00
2611;DHT22;5612;51.134;17.058;2023-04-24T12:00:01;22.50;1.00
2611;DHT22;5612;51.134;17.058;2023-04-24T12:02:32;22.30;1.00
2611;DHT22;5612;51.134;17.058;2023-04-24T12:05:08;22.30;1.00
2611;DHT22;5612;51.134;17.058;2023-04-24T12:07:41;22.00;1.00
2611;DHT22;5612;51.134;17.058;2023-04-24T12:10:11;21.50;1.00
2611;DHT22;5612;51.134;17.058;2023-04-24T12:12:40;21.50;1.00
2611;DHT22;5612;51.134;17.058;2023-04-24T12:15:09;21.20;1.00
2611;DHT22;5612;51.134;17.058;2023-04-24T12:17:42;20.60;1.00
2611;DHT22;5612;51.134;17.058;2023-04-24T12:20:13;20.50;1.00
2611;DHT22;5612;51.134;17.058;2023-04-24T12:22:44;20.20;1.00
2611;DHT22;5612;51.134;17.058;2023-04-24T12:25:14;20.10;1.00
2611;DHT22;5612;51.134;17.058;2023-04-24T12:27:44;20.00;1.00
2611;DHT22;5612;51.134;17.058;2023-04-24T12:30:14;19.70;1.00
2611;DHT22;5612;51.134;17.058;2023-04-24T12:32:45;19.50;1.00
2611;DHT22;5612;51.134;17.058;2023-04-24T12:35:19;19.60;1.00
2611;DHT22;5612;51.134;17.058;2023-04-24T12:37:49;19.60;1.00
2611;DHT22;5612;51.134;17.058;2023-04-24T12:40:19;19.50;1.00
2611;DHT22;5612;51.134;17.058;2023-04-24T12:42:50;19.10;1.00
2611;DHT22;5612;51.134;17.058;2023-04-24T12:45:19;18.80;1.00
2611;DHT22;5612;51.134;17.058;2023-04-24T12:47:50;18.70;1.00
2611;DHT22;5612;51.134;17.058;2023-04-24T12:50:21;18.70;1.00
2611;DHT22;5612;51.134;17.058;2023-04-24T12:52:50;18.60;1.00
2611;DHT22;5612;51.134;17.058;2023-04-24T12:55:19;18.60;1.00
2611;DHT22;5612;51.134;17.058;2023-04-24T12:57:47;18.60;1.00
2611;DHT22;5612;51.134;17.058;2023-04-24T13:00:17;18.60;1.00
2611;DHT22;5612;51.134;17.058;2023-04-24T13:02:46;18.30;26.40
2611;DHT22;5612;51.134;17.058;2023-04-24T13:05:16;18.20;92.80
2611;DHT22;5612;51.134;17.058;2023-04-24T13:07:46;18.20;99.90
2611;DHT22;5612;51.134;17.058;2023-04-24T13:10:15;18.00;99.90
2611;DHT22;5612;51.134;17.058;2023-04-24T13:12:44;17.70;99.90
2611;DHT22;5612;51.134;17.058;2023-04-24T13:15:13;17.60;99.90
2611;DHT22;5612;51.134;17.058;2023-04-24T13:17:42;17.70;99.90
2611;DHT22;5612;51.134;17.058;2023-04-24T13:20:11;17.70;99.90
2611;DHT22;5612;51.134;17.058;2023-04-24T13:22:41;17.80;1.00
2611;DHT22;5612;51.134;17.058;2023-04-24T13:25:11;17.80;99.90
2611;DHT22;5612;51.134;17.058;2023-04-24T13:27:44;17.60;99.90
2611;DHT22;5612;51.134;17.058;2023-04-24T13:30:13;17.50;88.30
2611;DHT22;5612;51.134;17.058;2023-04-24T13:32:42;17.30;27.30
2611;DHT22;5612;51.134;17.058;2023-04-24T13:35:11;17.40;50.00
2611;DHT22;5612;51.134;17.058;2023-04-24T13:37:40;17.30;1.00
2611;DHT22;5612;51.134;17.058;2023-04-24T13:40:11;17.00;1.00
2611;DHT22;5612;51.134;17.058;2023-04-24T13:42:40;16.70;2.00
2611;DHT22;5612;51.134;17.058;2023-04-24T13:45:10;16.50;19.80
2611;DHT22;5612;51.134;17.058;2023-04-24T13:47:51;16.20;27.30
2611;DHT22;5612;51.134;17.058;2023-04-24T13:50:21;16.20;99.90
2611;DHT22;5612;51.134;17.058;2023-04-24T13:52:50;16.20;88.50
2611;DHT22;5612;51.134;17.058;2023-04-24T13:55:21;16.20;99.90
2611;DHT22;5612;51.134;17.058;2023-04-24T13:57:50;16.20;99.90
2611;DHT22;5612;51.134;17.058;2023-04-24T14:00:22;16.30;99.90
2611;DHT22;5612;51.134;17.058;2023-04-24T14:02:51;16.20;50.60
2611;DHT22;5612;51.134;17.058;2023-04-24T14:05:20;16.00;1.70
2611;DHT22;5612;51.134;17.058;2023-04-24T14:07:50;15.80;26.50
2611;DHT22;5612;51.134;17.058;2023-04-24T14:10:20;15.80;82.70
2611;DHT22;5612;51.134;17.058;2023-04-24T14:12:49;16.00;58.30
2611;DHT22;5612;51.134;17.058;2023-04-24T14:15:19;15.90;21.60
2611;DHT22;5612;51.134;17.058;2023-04-24T14:17:48;15.70;23.50
2611;DHT22;5612;51.134;17.058;2023-04-24T14:20:17;15.80;9.90
2611;DHT22;5612;51.134;17.058;2023-04-24T14:22:47;15.90;26.60
2611;DHT22;5612;51.134;17.058;2023-04-24T14:25:16;15.80;40.00
2611;DHT22;5612;51.134;17.058;2023-04-24T14:27:47;15.80;99.90
2611;DHT22;5612;51.134;17.058;2023-04-24T14:30:18;15.80;99.90
2611;DHT22;5612;51.134;17.058;2023-04-24T14:32:47;15.80;99.90
2611;DHT22;5612;51.134;17.058;2023-04-24T14:35:16;15.60;99.90
2611;DHT22;5612;51.134;17.058;2023-04-24T14:37:44;15.50;99.90
2611;DHT22;5612;51.134;17.058;2023-04-24T14:40:13;15.40;99.90
2611;DHT22;5612;51.134;17.058;2023-04-24T14:43:04;15.20;99.90
2611;DHT22;5612;51.134;17.058;2023-04-24T14:45:32;15.00;99.90
2611;DHT22;5612;51.134;17.058;2023-04-24T14:48:01;14.90;99.90
2611;DHT22;5612;51.134;17.058;2023-04-24T14:50:30;14.90;99.90
2611;DHT22;5612;51.134;17.058;2023-04-24T14:53:00;14.80;99.90
2611;DHT22;5612;51.134;17.058;2023-04-24T14:55:29;14.80;99.90
2611;DHT22;5612;51.134;17.058;2023-04-24T14:57:59;14.80;99.90
2611;DHT22;5612;51.134;17.058;2023-04-24T15:00:30;14.70;99.90
2611;DHT22;5612;51.134;17.058;2023-04-24T15:02:59;14.60;99.90
2611;DHT22;5612;51.134;17.058;2023-04-24T15:05:29;14.60;1.00
2611;DHT22;5612;51.134;17.058;2023-04-24T15:07:58;14.60;99.90
2611;DHT22;5612;51.134;17.058;2023-04-24T15:10:27;14.40;99.90
2611;DHT22;5612;51.134;17.058;2023-04-24T15:12:57;14.30;99.90
2611;DHT22;5612;51.134;17.058;2023-04-24T15:15:26;14.20;99.90
2611;DHT22;5612;51.134;17.058;2023-04-24T15:17:56;14.20;99.90
2611;DHT22;5612;51.134;17.058;2023-04-24T15:20:25;14.20;99.90
2611;DHT22;5612;51.134;17.058;2023-04-24T15:22:54;14.20;99.90
2611;DHT22;5612;51.134;17.058;2023-04-24T15:25:23;14.30;99.90
2611;DHT22;5612;51.134;17.058;2023-04-24T15:27:52;14.40;99.90
2611;DHT22;5612;51.134;17.058;2023-04-24T15:30:21;14.30;99.90
2611;DHT22;5612;51.134;17.058;2023-04-24T15:32:50;14.40;99.90
2611;DHT22;5612;51.134;17.058;2023-04-24T15:35:21;14.40;1.00
2611;DHT22;5612;51.134;17.058;2023-04-24T15:37:50;14.40;1.00
2611;DHT22;5612;51.134;17.058;2023-04-24T15:40:19;14.50;99.90
2611;DHT22;5612;51.134;17.058;2023-04-24T15:42:48;14.50;99.90
2611;DHT22;5612;51.134;17.058;2023-04-24T15:45:17;14.50;99.90
2611;DHT22;5612;51.134;17.058;2023-04-24T15:47:47;14.70;99.90
2611;DHT22;5612;51.134;17.058;2023-04-24T15:50:17;14.70;99.90
2611;DHT22;5612;51.134;17.058;2023-04-24T15:52:49;14.50;99.90
2611;DHT22;5612;51.134;17.058;2023-04-24T15:55:18;14.30;1.00
2611;DHT22;5612;51.134;17.058;2023-04-24T15:57:48;14.40;99.90
2611;DHT22;5612;51.134;17.058;2023-04-24T16:00:17;14.50;99.90
2611;DHT22;5612;51.134;17.058;2023-04-24T16:02:46;14.70;99.90
2611;DHT22;5612;51.134;17.058;2023-04-24T16:05:17;14.60;1.00
2611;DHT22;5612;51.134;17.058;2023-04-24T16:07:46;14.60;99.90
2611;DHT22;5612;51.134;17.058;2023-04-24T16:10:18;14.80;1.00
2611;DHT22;5612;51.134;17.058;2023-04-24T16:12:47;14.90;99.90